Главная страница
METAR-TAF:

METAR-TAF

Аэропорты :

Сент-Джонс, Ньюфаундленд и Лабрадор, Канада

широта: 47-37N, долгота: 052-44W, высота над уровнем моря: 134 м

Текущие метеонаблюдения

Эта сводка был подготовлена 47 минут назад, в 02:00 UTC
Ветер 14 Узел от западный
Температура -8°C
Влажность 79%
Давление 1025 hPa
Видимость: 24.1 км
ясное небо

METAR: CYYT 260200Z 27014KT 15SM SKC M08/M11 A3028 RMK WND ESTD SLP267

Время: 23:17 (02:47 UTC)

Прогноз

Эта сводка был подготовлена 3 часа и 9 минут назад, в 23:38 UTC
Прогноз действительный с 26-го 00 UTC до 26-го 24 UTC
Ветер 12 Узел от западный
Видимость: 10 км
ясное небо
С 26-го 1200 UTC
Ветер 12 Узел от западный
Видимость: 10 км
Отдельные облака на высоте 12000 фута
Рассеянная облачность на высоте 22000 фута
изменения
С 26-го 18 UTC до 26-го 20 UTC
Ветер 10 Узел от юго-западный

TAF: CYYT 252338Z 2600/2624 26012KT P6SM SKC FM261200 26012KT P6SM SCT120 BKN220 BECMG 2618/2620 22010KT RMK NXT FCST BY 260600Z

Метеонаблюдения и прогнозы для более 4000 аэропортов (сводки METAR и TAF).

Имеющиеся станции представлены на карте желтыми и красными точками.

Чтобы увидеть название станции, наведите на нее мышь.

Затем щелкните, чтобы увидеть метеонаблюдения и метеопрогнозы.

Управление картой: чтобы увеличить масштаб, щелкните зеленые кнопки с черным крестиком; чтобы уменьшить масштаб, щелкните зеленую кнопку с тире; для просмотра соседних карт щелкайте зеленые стрелки.


METAR-TAF: